sensor_id;sensor_type;location;lat;lon;timestamp;pressure;altitude;pressure_sealevel;temperature;humidity
76404;BME280;65232;48.358;2.122;2023-02-01T00:00:19;102102.47;;;6.05;84.24
76404;BME280;65232;48.358;2.122;2023-02-01T00:00:44;102097.16;;;6.05;83.93
76404;BME280;65232;48.358;2.122;2023-02-01T00:01:10;102100.88;;;6.00;84.21
76404;BME280;65232;48.358;2.122;2023-02-01T00:01:35;102097.28;;;6.01;83.90
76404;BME280;65232;48.358;2.122;2023-02-01T00:02:01;102102.53;;;6.03;83.95
76404;BME280;65232;48.358;2.122;2023-02-01T00:02:27;102106.94;;;6.04;84.02
76404;BME280;65232;48.358;2.122;2023-02-01T00:02:52;102109.59;;;6.04;84.15
76404;BME280;65232;48.358;2.122;2023-02-01T00:03:18;102115.75;;;6.05;83.84
76404;BME280;65232;48.358;2.122;2023-02-01T00:03:44;102115.63;;;6.08;83.94
76404;BME280;65232;48.358;2.122;2023-02-01T00:04:09;102120.94;;;6.08;83.76
76404;BME280;65232;48.358;2.122;2023-02-01T00:04:35;102120.09;;;6.07;83.86
76404;BME280;65232;48.358;2.122;2023-02-01T00:05:00;102118.28;;;6.08;83.86
76404;BME280;65232;48.358;2.122;2023-02-01T00:05:26;102116.50;;;6.08;83.92
76404;BME280;65232;48.358;2.122;2023-02-01T00:05:55;102119.16;;;6.08;84.10
76404;BME280;65232;48.358;2.122;2023-02-01T00:06:22;102120.09;;;6.07;84.20
76404;BME280;65232;48.358;2.122;2023-02-01T00:06:47;102116.75;;;6.02;84.31
76404;BME280;65232;48.358;2.122;2023-02-01T00:07:13;102119.56;;;6.19;84.19
76404;BME280;65232;48.358;2.122;2023-02-01T00:07:38;102124.50;;;6.27;83.90
76404;BME280;65232;48.358;2.122;2023-02-01T00:08:04;102122.94;;;6.23;84.04
76404;BME280;65232;48.358;2.122;2023-02-01T00:08:29;102122.94;;;6.23;83.86
76404;BME280;65232;48.358;2.122;2023-02-01T00:08:55;102115.97;;;6.20;84.10
76404;BME280;65232;48.358;2.122;2023-02-01T00:09:21;102123.13;;;6.18;84.33
76404;BME280;65232;48.358;2.122;2023-02-01T00:09:47;102122.78;;;6.26;84.07
76404;BME280;65232;48.358;2.122;2023-02-01T00:10:12;102126.59;;;6.20;84.06
76404;BME280;65232;48.358;2.122;2023-02-01T00:10:38;102121.06;;;6.25;83.74
76404;BME280;65232;48.358;2.122;2023-02-01T00:11:08;102125.59;;;6.23;83.96
76404;BME280;65232;48.358;2.122;2023-02-01T00:11:34;102118.56;;;6.22;84.29
76404;BME280;65232;48.358;2.122;2023-02-01T00:12:00;102120.41;;;6.20;84.15
76404;BME280;65232;48.358;2.122;2023-02-01T00:12:27;102127.47;;;6.21;84.18
76404;BME280;65232;48.358;2.122;2023-02-01T00:12:52;102124.63;;;6.24;83.79
76404;BME280;65232;48.358;2.122;2023-02-01T00:13:18;102123.94;;;6.20;83.92
76404;BME280;65232;48.358;2.122;2023-02-01T00:13:43;102117.47;;;6.26;83.96
76404;BME280;65232;48.358;2.122;2023-02-01T00:14:09;102129.03;;;6.25;83.84
76404;BME280;65232;48.358;2.122;2023-02-01T00:14:34;102129.25;;;6.20;84.15
76404;BME280;65232;48.358;2.122;2023-02-01T00:15:03;102126.84;;;6.34;84.27
76404;BME280;65232;48.358;2.122;2023-02-01T00:15:29;102124.59;;;6.25;84.43
76404;BME280;65232;48.358;2.122;2023-02-01T00:15:54;102127.06;;;6.30;83.90
76404;BME280;65232;48.358;2.122;2023-02-01T00:16:23;102123.53;;;6.29;84.00
76404;BME280;65232;48.358;2.122;2023-02-01T00:16:48;102129.72;;;6.30;83.92
76404;BME280;65232;48.358;2.122;2023-02-01T00:17:14;102127.09;;;6.28;84.12
76404;BME280;65232;48.358;2.122;2023-02-01T00:17:39;102129.63;;;6.31;84.22
76404;BME280;65232;48.358;2.122;2023-02-01T00:18:05;102121.41;;;6.38;83.79
76404;BME280;65232;48.358;2.122;2023-02-01T00:18:30;102124.84;;;6.40;83.76
76404;BME280;65232;48.358;2.122;2023-02-01T00:19:03;102130.16;;;6.40;83.71
76404;BME280;65232;48.358;2.122;2023-02-01T00:19:29;102124.94;;;6.38;83.89
76404;BME280;65232;48.358;2.122;2023-02-01T00:19:54;102129.50;;;6.34;83.76
76404;BME280;65232;48.358;2.122;2023-02-01T00:20:19;102130.31;;;6.36;83.98
76404;BME280;65232;48.358;2.122;2023-02-01T00:20:46;102132.91;;;6.38;83.84
76404;BME280;65232;48.358;2.122;2023-02-01T00:21:13;102130.16;;;6.40;83.77
76404;BME280;65232;48.358;2.122;2023-02-01T00:21:40;102129.16;;;6.42;83.74
76404;BME280;65232;48.358;2.122;2023-02-01T00:22:05;102124.44;;;6.49;83.57
76404;BME280;65232;48.358;2.122;2023-02-01T00:22:31;102120.72;;;6.53;83.45
76404;BME280;65232;48.358;2.122;2023-02-01T00:22:56;102126.19;;;6.50;83.48
76404;BME280;65232;48.358;2.122;2023-02-01T00:23:22;102113.94;;;6.46;83.65
76404;BME280;65232;48.358;2.122;2023-02-01T00:23:48;102119.31;;;6.44;83.54
76404;BME280;65232;48.358;2.122;2023-02-01T00:24:13;102118.34;;;6.47;83.62
76404;BME280;65232;48.358;2.122;2023-02-01T00:24:39;102122.72;;;6.48;83.50
76404;BME280;65232;48.358;2.122;2023-02-01T00:25:05;102125.50;;;6.45;83.58
76404;BME280;65232;48.358;2.122;2023-02-01T00:25:31;102129.09;;;6.44;83.77
76404;BME280;65232;48.358;2.122;2023-02-01T00:25:59;102130.03;;;6.43;83.68
76404;BME280;65232;48.358;2.122;2023-02-01T00:26:35;102125.75;;;6.38;84.07
76404;BME280;65232;48.358;2.122;2023-02-01T00:27:00;102121.13;;;6.44;84.04
76404;BME280;65232;48.358;2.122;2023-02-01T00:27:26;102120.25;;;6.43;83.97
76404;BME280;65232;48.358;2.122;2023-02-01T00:27:51;102115.06;;;6.40;83.97
76404;BME280;65232;48.358;2.122;2023-02-01T00:28:17;102123.38;;;6.53;83.61
76404;BME280;65232;48.358;2.122;2023-02-01T00:28:43;102120.78;;;6.51;83.76
76404;BME280;65232;48.358;2.122;2023-02-01T00:29:12;102115.81;;;6.44;83.83
76404;BME280;65232;48.358;2.122;2023-02-01T00:29:38;102120.19;;;6.45;84.08
76404;BME280;65232;48.358;2.122;2023-02-01T00:30:04;102120.44;;;6.38;84.07
76404;BME280;65232;48.358;2.122;2023-02-01T00:30:30;102118.81;;;6.36;84.20
76404;BME280;65232;48.358;2.122;2023-02-01T00:30:57;102113.50;;;6.36;84.40
76404;BME280;65232;48.358;2.122;2023-02-01T00:31:22;102118.75;;;6.38;84.41
76404;BME280;65232;48.358;2.122;2023-02-01T00:31:50;102115.22;;;6.37;84.23
76404;BME280;65232;48.358;2.122;2023-02-01T00:32:16;102110.69;;;6.39;84.25
76404;BME280;65232;48.358;2.122;2023-02-01T00:32:41;102119.69;;;6.36;84.51
76404;BME280;65232;48.358;2.122;2023-02-01T00:33:07;102119.63;;;6.38;84.31
76404;BME280;65232;48.358;2.122;2023-02-01T00:33:33;102115.41;;;6.32;84.67
76404;BME280;65232;48.358;2.122;2023-02-01T00:33:59;102117.22;;;6.32;84.67
76404;BME280;65232;48.358;2.122;2023-02-01T00:34:25;102120.69;;;6.34;84.89
76404;BME280;65232;48.358;2.122;2023-02-01T00:34:51;102119.69;;;6.36;84.71
76404;BME280;65232;48.358;2.122;2023-02-01T00:35:17;102119.47;;;6.41;84.79
76404;BME280;65232;48.358;2.122;2023-02-01T00:35:43;102119.41;;;6.43;84.49
76404;BME280;65232;48.358;2.122;2023-02-01T00:36:09;102110.69;;;6.39;84.72
76404;BME280;65232;48.358;2.122;2023-02-01T00:36:34;102113.22;;;6.42;84.76
76404;BME280;65232;48.358;2.122;2023-02-01T00:37:00;102124.72;;;6.43;84.35
76404;BME280;65232;48.358;2.122;2023-02-01T00:37:25;102115.88;;;6.42;84.46
76404;BME280;65232;48.358;2.122;2023-02-01T00:37:51;102113.59;;;6.53;84.40
76404;BME280;65232;48.358;2.122;2023-02-01T00:38:17;102114.38;;;6.55;84.04
76404;BME280;65232;48.358;2.122;2023-02-01T00:38:42;102112.53;;;6.57;84.33
76404;BME280;65232;48.358;2.122;2023-02-01T00:39:08;102117.22;;;6.52;83.97
76404;BME280;65232;48.358;2.122;2023-02-01T00:39:33;102115.31;;;6.54;84.10
76404;BME280;65232;48.358;2.122;2023-02-01T00:39:59;102112.81;;;6.51;84.04
76404;BME280;65232;48.358;2.122;2023-02-01T00:40:24;102123.66;;;6.47;84.60
76404;BME280;65232;48.358;2.122;2023-02-01T00:40:50;102109.38;;;6.49;84.17
76404;BME280;65232;48.358;2.122;2023-02-01T00:41:18;102119.00;;;6.52;84.21
76404;BME280;65232;48.358;2.122;2023-02-01T00:41:44;102107.56;;;6.50;84.07
76404;BME280;65232;48.358;2.122;2023-02-01T00:42:10;102115.66;;;6.47;84.38
76404;BME280;65232;48.358;2.122;2023-02-01T00:42:35;102111.22;;;6.47;84.28
76404;BME280;65232;48.358;2.122;2023-02-01T00:43:01;102109.38;;;6.49;84.40
76404;BME280;65232;48.358;2.122;2023-02-01T00:43:26;102111.78;;;6.54;84.30
76404;BME280;65232;48.358;2.122;2023-02-01T00:43:52;102116.97;;;6.57;84.27
76404;BME280;65232;48.358;2.122;2023-02-01T00:44:17;102117.78;;;6.59;83.93
76404;BME280;65232;48.358;2.122;2023-02-01T00:44:43;102121.31;;;6.59;84.18
76404;BME280;65232;48.358;2.122;2023-02-01T00:45:09;102113.31;;;6.59;83.94
76404;BME280;65232;48.358;2.122;2023-02-01T00:45:35;102121.50;;;6.55;84.18
76404;BME280;65232;48.358;2.122;2023-02-01T00:46:00;102115.47;;;6.51;84.11
76404;BME280;65232;48.358;2.122;2023-02-01T00:46:27;102113.75;;;6.50;84.40
76404;BME280;65232;48.358;2.122;2023-02-01T00:46:52;102114.81;;;6.46;84.39
76404;BME280;65232;48.358;2.122;2023-02-01T00:47:18;102120.84;;;6.50;84.41
76404;BME280;65232;48.358;2.122;2023-02-01T00:47:45;102118.06;;;6.53;84.55
76404;BME280;65232;48.358;2.122;2023-02-01T00:48:10;102114.38;;;6.55;84.48
76404;BME280;65232;48.358;2.122;2023-02-01T00:48:36;102116.97;;;6.57;84.32
76404;BME280;65232;48.358;2.122;2023-02-01T00:49:02;102117.03;;;6.55;84.60
76404;BME280;65232;48.358;2.122;2023-02-01T00:49:28;102118.91;;;6.53;84.69
76404;BME280;65232;48.358;2.122;2023-02-01T00:49:53;102116.97;;;6.57;84.51
76404;BME280;65232;48.358;2.122;2023-02-01T00:50:19;102114.25;;;6.58;84.36
76404;BME280;65232;48.358;2.122;2023-02-01T00:50:44;102116.03;;;6.58;84.30
76404;BME280;65232;48.358;2.122;2023-02-01T00:51:15;102121.16;;;6.62;84.57
76404;BME280;65232;48.358;2.122;2023-02-01T00:51:41;102113.00;;;6.67;84.29
76404;BME280;65232;48.358;2.122;2023-02-01T00:52:06;102112.13;;;6.66;83.91
76404;BME280;65232;48.358;2.122;2023-02-01T00:52:32;102111.97;;;6.69;83.75
76404;BME280;65232;48.358;2.122;2023-02-01T00:52:57;102118.09;;;6.71;83.66
76404;BME280;65232;48.358;2.122;2023-02-01T00:53:23;102118.69;;;6.78;83.57
76404;BME280;65232;48.358;2.122;2023-02-01T00:53:49;102114.50;;;6.72;83.86
76404;BME280;65232;48.358;2.122;2023-02-01T00:54:15;102117.28;;;6.69;83.71
76404;BME280;65232;48.358;2.122;2023-02-01T00:54:40;102110.16;;;6.70;83.86
76404;BME280;65232;48.358;2.122;2023-02-01T00:55:06;102117.28;;;6.69;83.75
76404;BME280;65232;48.358;2.122;2023-02-01T00:55:31;102123.47;;;6.70;83.79
76404;BME280;65232;48.358;2.122;2023-02-01T00:55:57;102116.41;;;6.69;83.76
76404;BME280;65232;48.358;2.122;2023-02-01T00:56:23;102118.00;;;6.73;83.66
76404;BME280;65232;48.358;2.122;2023-02-01T00:56:49;102119.94;;;6.69;83.92
76404;BME280;65232;48.358;2.122;2023-02-01T00:57:14;102109.97;;;6.75;83.77
76404;BME280;65232;48.358;2.122;2023-02-01T00:57:40;102108.16;;;6.75;83.80
76404;BME280;65232;48.358;2.122;2023-02-01T00:58:05;102110.69;;;6.78;83.88
76404;BME280;65232;48.358;2.122;2023-02-01T00:58:31;102105.38;;;6.78;83.45
76404;BME280;65232;48.358;2.122;2023-02-01T00:58:57;102114.34;;;6.76;83.80
76404;BME280;65232;48.358;2.122;2023-02-01T00:59:23;102111.75;;;6.74;83.70
76404;BME280;65232;48.358;2.122;2023-02-01T00:59:48;102109.97;;;6.75;83.67
76404;BME280;65232;48.358;2.122;2023-02-01T01:00:14;102109.09;;;6.74;83.99
76404;BME280;65232;48.358;2.122;2023-02-01T01:00:40;102109.97;;;6.75;83.92
76404;BME280;65232;48.358;2.122;2023-02-01T01:01:06;102114.50;;;6.72;83.76
76404;BME280;65232;48.358;2.122;2023-02-01T01:01:33;102109.38;;;6.68;83.97
76404;BME280;65232;48.358;2.122;2023-02-01T01:01:58;102114.13;;;6.61;84.21
76404;BME280;65232;48.358;2.122;2023-02-01T01:02:26;102107.88;;;6.62;84.37
76404;BME280;65232;48.358;2.122;2023-02-01T01:02:51;102115.91;;;6.61;84.62
76404;BME280;65232;48.358;2.122;2023-02-01T01:03:17;102115.97;;;6.59;84.56
76404;BME280;65232;48.358;2.122;2023-02-01T01:03:45;102114.25;;;6.58;84.61
76404;BME280;65232;48.358;2.122;2023-02-01T01:04:12;102110.78;;;6.56;84.60
76404;BME280;65232;48.358;2.122;2023-02-01T01:04:37;102114.31;;;6.57;84.67
76404;BME280;65232;48.358;2.122;2023-02-01T01:05:03;102107.22;;;6.57;84.67
76404;BME280;65232;48.358;2.122;2023-02-01T01:05:28;102115.97;;;6.59;84.45
76404;BME280;65232;48.358;2.122;2023-02-01T01:05:56;102110.66;;;6.59;84.71
76404;BME280;65232;48.358;2.122;2023-02-01T01:06:25;102109.88;;;6.57;84.71
76404;BME280;65232;48.358;2.122;2023-02-01T01:06:51;102101.03;;;6.57;84.94
76404;BME280;65232;48.358;2.122;2023-02-01T01:07:16;102108.88;;;6.60;84.79
76404;BME280;65232;48.358;2.122;2023-02-01T01:07:42;102103.56;;;6.60;84.62
76404;BME280;65232;48.358;2.122;2023-02-01T01:08:07;102105.41;;;6.58;84.82
76404;BME280;65232;48.358;2.122;2023-02-01T01:08:33;102102.69;;;6.59;84.38
76404;BME280;65232;48.358;2.122;2023-02-01T01:09:03;102099.16;;;6.59;84.65
76404;BME280;65232;48.358;2.122;2023-02-01T01:09:29;102108.13;;;6.56;84.60
76404;BME280;65232;48.358;2.122;2023-02-01T01:09:54;102107.22;;;6.57;84.67
76404;BME280;65232;48.358;2.122;2023-02-01T01:10:20;102103.63;;;6.58;84.84
76404;BME280;65232;48.358;2.122;2023-02-01T01:10:46;102103.75;;;6.55;84.63
76404;BME280;65232;48.358;2.122;2023-02-01T01:11:18;102105.47;;;6.56;84.81
76404;BME280;65232;48.358;2.122;2023-02-01T01:11:43;102109.13;;;6.54;85.15
76404;BME280;65232;48.358;2.122;2023-02-01T01:12:10;102105.53;;;6.55;84.77
76404;BME280;65232;48.358;2.122;2023-02-01T01:12:35;102101.09;;;6.55;84.86
76404;BME280;65232;48.358;2.122;2023-02-01T01:13:01;102095.69;;;6.57;84.60
76404;BME280;65232;48.358;2.122;2023-02-01T01:13:26;102098.22;;;6.60;84.88
76404;BME280;65232;48.358;2.122;2023-02-01T01:13:53;102096.06;;;6.68;84.49
76404;BME280;65232;48.358;2.122;2023-02-01T01:14:20;102101.25;;;6.71;84.39
76404;BME280;65232;48.358;2.122;2023-02-01T01:14:45;102097.47;;;6.77;84.23
76404;BME280;65232;48.358;2.122;2023-02-01T01:15:11;102095.88;;;6.72;84.35
76404;BME280;65232;48.358;2.122;2023-02-01T01:15:39;102099.06;;;6.81;83.79
76404;BME280;65232;48.358;2.122;2023-02-01T01:16:06;102100.84;;;6.80;83.89
76404;BME280;65232;48.358;2.122;2023-02-01T01:16:33;102097.97;;;6.85;83.74
76404;BME280;65232;48.358;2.122;2023-02-01T01:16:59;102104.22;;;6.84;83.48
76404;BME280;65232;48.358;2.122;2023-02-01T01:17:24;102101.56;;;6.84;83.76
76404;BME280;65232;48.358;2.122;2023-02-01T01:17:50;102104.94;;;6.87;83.79
76404;BME280;65232;48.358;2.122;2023-02-01T01:18:15;102095.47;;;6.82;83.74
76404;BME280;65232;48.358;2.122;2023-02-01T01:18:41;102092.81;;;6.82;83.93
76404;BME280;65232;48.358;2.122;2023-02-01T01:19:07;102093.66;;;6.82;83.79
76404;BME280;65232;48.358;2.122;2023-02-01T01:19:33;102095.53;;;6.80;83.72
76404;BME280;65232;48.358;2.122;2023-02-01T01:19:58;102093.81;;;6.79;83.80
76404;BME280;65232;48.358;2.122;2023-02-01T01:20:24;102093.94;;;6.76;83.78
76404;BME280;65232;48.358;2.122;2023-02-01T01:20:49;102091.28;;;6.76;84.02
76404;BME280;65232;48.358;2.122;2023-02-01T01:21:16;102096.53;;;6.78;84.15
76404;BME280;65232;48.358;2.122;2023-02-01T01:21:41;102094.81;;;6.77;83.85
76404;BME280;65232;48.358;2.122;2023-02-01T01:22:07;102092.22;;;6.75;83.97
76404;BME280;65232;48.358;2.122;2023-02-01T01:22:33;102097.41;;;6.78;83.80
76404;BME280;65232;48.358;2.122;2023-02-01T01:22:58;102097.47;;;6.77;84.17
76404;BME280;65232;48.358;2.122;2023-02-01T01:23:24;102094.00;;;6.75;84.17
76404;BME280;65232;48.358;2.122;2023-02-01T01:23:49;102095.75;;;6.76;84.25
76404;BME280;65232;48.358;2.122;2023-02-01T01:24:15;102097.47;;;6.77;84.21
76404;BME280;65232;48.358;2.122;2023-02-01T01:24:40;102094.94;;;6.73;84.17
76404;BME280;65232;48.358;2.122;2023-02-01T01:25:06;102094.81;;;6.77;84.44
76404;BME280;65232;48.358;2.122;2023-02-01T01:25:31;102092.56;;;6.86;83.98
76404;BME280;65232;48.358;2.122;2023-02-01T01:25:57;102095.81;;;6.93;83.83
76404;BME280;65232;48.358;2.122;2023-02-01T01:26:25;102091.63;;;6.87;83.86
76404;BME280;65232;48.358;2.122;2023-02-01T01:26:51;102095.38;;;6.83;83.74
76404;BME280;65232;48.358;2.122;2023-02-01T01:27:16;102093.00;;;6.77;84.16
76404;BME280;65232;48.358;2.122;2023-02-01T01:27:48;102094.88;;;6.75;83.80
76404;BME280;65232;48.358;2.122;2023-02-01T01:28:13;102086.16;;;6.71;84.27
76404;BME280;65232;48.358;2.122;2023-02-01T01:28:39;102094.22;;;6.70;84.27
76404;BME280;65232;48.358;2.122;2023-02-01T01:29:04;102095.13;;;6.69;84.09
76404;BME280;65232;48.358;2.122;2023-02-01T01:29:30;102088.63;;;6.76;84.27
76404;BME280;65232;48.358;2.122;2023-02-01T01:29:55;102088.56;;;6.78;84.33
76404;BME280;65232;48.358;2.122;2023-02-01T01:30:22;102087.88;;;6.72;84.10
76404;BME280;65232;48.358;2.122;2023-02-01T01:30:47;102084.31;;;6.73;84.35
76404;BME280;65232;48.358;2.122;2023-02-01T01:31:14;102087.88;;;6.72;84.27
76404;BME280;65232;48.358;2.122;2023-02-01T01:31:40;102093.06;;;6.76;84.22
76404;BME280;65232;48.358;2.122;2023-02-01T01:32:05;102089.75;;;6.70;84.32
76404;BME280;65232;48.358;2.122;2023-02-01T01:32:31;102090.06;;;6.64;84.55
76404;BME280;65232;48.358;2.122;2023-02-01T01:32:56;102088.31;;;6.63;84.62
76404;BME280;65232;48.358;2.122;2023-02-01T01:33:22;102087.16;;;6.69;84.70
76404;BME280;65232;48.358;2.122;2023-02-01T01:33:52;102094.28;;;6.68;84.76
76404;BME280;65232;48.358;2.122;2023-02-01T01:34:18;102086.47;;;6.65;84.66
76404;BME280;65232;48.358;2.122;2023-02-01T01:34:44;102089.81;;;6.69;84.61
76404;BME280;65232;48.358;2.122;2023-02-01T01:35:10;102093.34;;;6.69;84.76
76404;BME280;65232;48.358;2.122;2023-02-01T01:35:36;102089.47;;;6.77;84.51
76404;BME280;65232;48.358;2.122;2023-02-01T01:36:05;102091.00;;;6.82;83.96
76404;BME280;65232;48.358;2.122;2023-02-01T01:36:30;102094.59;;;6.81;84.02
76404;BME280;65232;48.358;2.122;2023-02-01T01:36:56;102090.28;;;6.79;84.23
76404;BME280;65232;48.358;2.122;2023-02-01T01:37:21;102101.66;;;6.82;84.33
76404;BME280;65232;48.358;2.122;2023-02-01T01:37:47;102092.81;;;6.82;84.05
76404;BME280;65232;48.358;2.122;2023-02-01T01:38:12;102100.00;;;6.80;84.24
76404;BME280;65232;48.358;2.122;2023-02-01T01:38:41;102097.81;;;6.88;84.16
76404;BME280;65232;48.358;2.122;2023-02-01T01:39:07;102094.28;;;6.87;83.96
76404;BME280;65232;48.358;2.122;2023-02-01T01:39:33;102096.09;;;6.87;83.72
76404;BME280;65232;48.358;2.122;2023-02-01T01:39:59;102094.50;;;6.83;83.98
76404;BME280;65232;48.358;2.122;2023-02-01T01:40:25;102092.16;;;6.77;84.16
76404;BME280;65232;48.358;2.122;2023-02-01T01:40:50;102097.59;;;6.73;83.96
76404;BME280;65232;48.358;2.122;2023-02-01T01:41:20;102094.22;;;6.70;84.41
76404;BME280;65232;48.358;2.122;2023-02-01T01:41:46;102089.47;;;6.77;84.33
76404;BME280;65232;48.358;2.122;2023-02-01T01:42:16;102092.94;;;6.79;84.04
76404;BME280;65232;48.358;2.122;2023-02-01T01:42:43;102100.19;;;6.75;84.08
76404;BME280;65232;48.358;2.122;2023-02-01T01:43:16;102095.81;;;6.74;84.37
76404;BME280;65232;48.358;2.122;2023-02-01T01:44:06;102098.47;;;6.74;84.01
76404;BME280;65232;48.358;2.122;2023-02-01T01:44:56;102101.28;;;6.90;84.04
76404;BME280;65232;48.358;2.122;2023-02-01T01:45:50;102102.47;;;6.83;83.81
76404;BME280;65232;48.358;2.122;2023-02-01T01:46:22;102098.81;;;6.85;83.67
76404;BME280;65232;48.358;2.122;2023-02-01T01:46:47;102104.94;;;6.87;83.63
76404;BME280;65232;48.358;2.122;2023-02-01T01:47:14;102104.06;;;6.87;83.94
76404;BME280;65232;48.358;2.122;2023-02-01T01:47:44;102105.75;;;6.89;83.71
76404;BME280;65232;48.358;2.122;2023-02-01T01:48:19;102106.88;;;6.84;83.82
76404;BME280;65232;48.358;2.122;2023-02-01T01:48:48;102105.00;;;6.86;83.75
76404;BME280;65232;48.358;2.122;2023-02-01T01:49:20;102107.75;;;6.84;83.73
76404;BME280;65232;48.358;2.122;2023-02-01T01:49:49;102099.06;;;6.81;83.86
76404;BME280;65232;48.358;2.122;2023-02-01T01:50:18;102103.50;;;6.80;83.99
76404;BME280;65232;48.358;2.122;2023-02-01T01:50:51;102104.38;;;6.81;83.94
76404;BME280;65232;48.358;2.122;2023-02-01T01:51:22;102111.50;;;6.80;83.83
76404;BME280;65232;48.358;2.122;2023-02-01T01:52:07;102103.34;;;6.83;83.79
76404;BME280;65232;48.358;2.122;2023-02-01T01:52:35;102111.25;;;6.85;84.04
76404;BME280;65232;48.358;2.122;2023-02-01T01:53:05;102115.31;;;6.93;83.77
76404;BME280;65232;48.358;2.122;2023-02-01T01:53:43;102111.25;;;6.85;83.61
76404;BME280;65232;48.358;2.122;2023-02-01T01:54:18;102115.72;;;6.84;83.74
76404;BME280;65232;48.358;2.122;2023-02-01T01:54:51;102115.88;;;6.81;83.94
76404;BME280;65232;48.358;2.122;2023-02-01T01:55:19;102111.50;;;6.80;84.06
76404;BME280;65232;48.358;2.122;2023-02-01T01:55:46;102110.56;;;6.81;83.78
76404;BME280;65232;48.358;2.122;2023-02-01T01:56:14;102119.53;;;6.79;83.80
76404;BME280;65232;48.358;2.122;2023-02-01T01:56:40;102119.41;;;6.82;83.93
76404;BME280;65232;48.358;2.122;2023-02-01T01:57:22;102120.09;;;6.85;83.71
76404;BME280;65232;48.358;2.122;2023-02-01T01:57:55;102119.41;;;6.82;83.94
76404;BME280;65232;48.358;2.122;2023-02-01T01:58:26;102111.56;;;6.79;84.03
76404;BME280;65232;48.358;2.122;2023-02-01T01:58:53;102110.75;;;6.77;84.11
76404;BME280;65232;48.358;2.122;2023-02-01T01:59:20;102110.69;;;6.78;84.00
76404;BME280;65232;48.358;2.122;2023-02-01T01:59:50;102114.09;;;6.82;83.82
76404;BME280;65232;48.358;2.122;2023-02-01T02:00:20;102110.03;;;6.73;83.93
76404;BME280;65232;48.358;2.122;2023-02-01T02:00:46;102111.03;;;6.70;84.47
76404;BME280;65232;48.358;2.122;2023-02-01T02:01:12;102117.16;;;6.72;84.28
76404;BME280;65232;48.358;2.122;2023-02-01T02:01:38;102118.09;;;6.71;84.37
76404;BME280;65232;48.358;2.122;2023-02-01T02:02:03;102113.00;;;6.67;84.49
76404;BME280;65232;48.358;2.122;2023-02-01T02:02:29;102113.94;;;6.66;84.54
76404;BME280;65232;48.358;2.122;2023-02-01T02:03:43;102116.28;;;6.72;84.39
76404;BME280;65232;48.358;2.122;2023-02-01T02:04:09;102119.69;;;6.76;84.41
76404;BME280;65232;48.358;2.122;2023-02-01T02:04:35;102115.22;;;6.76;84.26
76404;BME280;65232;48.358;2.122;2023-02-01T02:05:02;102118.00;;;6.73;84.31
76404;BME280;65232;48.358;2.122;2023-02-01T02:05:27;102117.94;;;6.75;84.43
76404;BME280;65232;48.358;2.122;2023-02-01T02:05:55;102108.97;;;6.77;84.32
76404;BME280;65232;48.358;2.122;2023-02-01T02:06:43;102114.16;;;6.80;83.98
76404;BME280;65232;48.358;2.122;2023-02-01T02:07:26;102113.34;;;6.78;84.10
76404;BME280;65232;48.358;2.122;2023-02-01T02:07:53;102101.19;;;6.72;84.23
76404;BME280;65232;48.358;2.122;2023-02-01T02:08:23;102107.38;;;6.73;84.15
76404;BME280;65232;48.358;2.122;2023-02-01T02:08:49;102106.56;;;6.71;84.28
76404;BME280;65232;48.358;2.122;2023-02-01T02:09:15;102108.09;;;6.77;84.43
76404;BME280;65232;48.358;2.122;2023-02-01T02:09:41;102103.84;;;6.72;84.14
76404;BME280;65232;48.358;2.122;2023-02-01T02:10:11;102110.03;;;6.73;84.24
76404;BME280;65232;48.358;2.122;2023-02-01T02:10:37;102110.84;;;6.75;84.20
76404;BME280;65232;48.358;2.122;2023-02-01T02:11:21;102115.94;;;6.80;84.13
76404;BME280;65232;48.358;2.122;2023-02-01T02:11:47;102113.34;;;6.78;84.15
76404;BME280;65232;48.358;2.122;2023-02-01T02:12:12;102117.31;;;6.88;84.03
76404;BME280;65232;48.358;2.122;2023-02-01T02:12:39;102116.59;;;6.85;83.57
76404;BME280;65232;48.358;2.122;2023-02-01T02:13:06;102111.44;;;6.82;83.93
76404;BME280;65232;48.358;2.122;2023-02-01T02:13:37;102116.88;;;6.79;84.16
76404;BME280;65232;48.358;2.122;2023-02-01T02:14:04;102108.09;;;6.77;84.23
76404;BME280;65232;48.358;2.122;2023-02-01T02:14:33;102119.69;;;6.76;83.99
76404;BME280;65232;48.358;2.122;2023-02-01T02:14:59;102111.63;;;6.77;84.27
76404;BME280;65232;48.358;2.122;2023-02-01T02:15:25;102102.91;;;6.73;84.13
76404;BME280;65232;48.358;2.122;2023-02-01T02:16:05;102118.22;;;6.68;84.26
76404;BME280;65232;48.358;2.122;2023-02-01T02:16:53;102120.69;;;6.73;84.29
76404;BME280;65232;48.358;2.122;2023-02-01T02:17:48;102113.34;;;6.78;84.23
76404;BME280;65232;48.358;2.122;2023-02-01T02:18:27;102110.47;;;6.83;84.03
76404;BME280;65232;48.358;2.122;2023-02-01T02:24:43;102107.75;;;6.84;83.89
76404;BME280;65232;48.358;2.122;2023-02-01T02:25:37;102107.19;;;6.78;83.84
76404;BME280;65232;48.358;2.122;2023-02-01T02:29:11;102100.63;;;6.85;84.02
76404;BME280;65232;48.358;2.122;2023-02-01T02:34:22;102104.38;;;6.81;84.13
76404;BME280;65232;48.358;2.122;2023-02-01T02:35:06;102106.19;;;6.80;84.17
76404;BME280;65232;48.358;2.122;2023-02-01T02:36:41;102109.16;;;6.72;84.46
76404;BME280;65232;48.358;2.122;2023-02-01T02:37:42;102110.84;;;6.75;84.42
76404;BME280;65232;48.358;2.122;2023-02-01T02:38:17;102108.53;;;6.67;84.45
76404;BME280;65232;48.358;2.122;2023-02-01T02:41:17;102101.66;;;6.82;84.34
76404;BME280;65232;48.358;2.122;2023-02-01T02:42:12;102108.03;;;6.78;84.26
76404;BME280;65232;48.358;2.122;2023-02-01T02:43:27;102107.91;;;6.81;84.25
76404;BME280;65232;48.358;2.122;2023-02-01T02:44:50;102113.56;;;6.73;84.46
76404;BME280;65232;48.358;2.122;2023-02-01T02:46:46;102116.97;;;6.57;85.06
76404;BME280;65232;48.358;2.122;2023-02-01T02:52:18;102121.97;;;6.64;85.19
76404;BME280;65232;48.358;2.122;2023-02-01T02:53:25;102125.50;;;6.65;85.06
76404;BME280;65232;48.358;2.122;2023-02-01T02:54:20;102121.09;;;6.64;85.22